Time;durP1;ratioP1;P1;durP2;ratioP2;P2;SDS_P1;SDS_P2;PMS_P1;PMS_P2;Temp;Humidity;BMP_temperature;BMP_pressure;BME280_temperature;BME280_humidity;BME280_pressure;Samples;Min_cycle;Max_cycle;Signal;HPM_P1;HPM_P2
2023/04/20 00:01:46;;;;;;;11.80;8.70;;;9.00;99.90;;;;;;5052150;28;20025;-63
2023/04/20 00:04:15;;;;;;;13.00;9.27;;;9.00;99.90;;;;;;5052435;28;20025;-63
2023/04/20 00:06:42;;;;;;;12.45;9.50;;;9.00;99.90;;;;;;5051761;28;20029;-62
2023/04/20 00:09:09;;;;;;;11.40;8.88;;;9.00;99.90;;;;;;5052289;28;20031;-62
2023/04/20 00:11:35;;;;;;;10.80;8.32;;;9.00;99.90;;;;;;5052059;28;20083;-63
2023/04/20 00:14:01;;;;;;;12.98;9.57;;;9.00;99.90;;;;;;5051465;28;20025;-63
2023/04/20 00:16:27;;;;;;;12.88;9.82;;;9.00;99.90;;;;;;5052673;28;20104;-63
2023/04/20 00:18:52;;;;;;;12.23;9.27;;;9.00;99.90;;;;;;5051765;28;20443;-63
2023/04/20 00:21:22;;;;;;;15.20;10.25;;;9.00;99.90;;;;;;5052427;28;20025;-64
2023/04/20 00:23:51;;;;;;;12.25;9.63;;;9.00;99.90;;;;;;5051997;28;20028;-63
2023/04/20 00:26:17;;;;;;;13.02;9.50;;;9.00;99.90;;;;;;5052312;28;20040;-63
2023/04/20 00:28:43;;;;;;;13.18;9.50;;;9.00;99.90;;;;;;5051621;28;20434;-63
2023/04/20 00:31:09;;;;;;;12.35;8.98;;;9.00;99.90;;;;;;5051902;28;20067;-63
2023/04/20 00:33:35;;;;;;;13.60;9.25;;;9.00;99.90;;;;;;5051356;28;20024;-64
2023/04/20 00:36:01;;;;;;;11.32;8.65;;;9.00;99.90;;;;;;5052200;28;20021;-63
2023/04/20 00:38:26;;;;;;;12.18;9.02;;;9.00;99.90;;;;;;5053129;28;20029;-63
2023/04/20 00:41:11;;;;;;;11.30;9.07;;;9.00;99.90;;;;;;5055611;28;20083;-63
2023/04/20 00:43:37;;;;;;;11.88;8.35;;;8.90;99.90;;;;;;5055541;28;20040;-63
2023/04/20 00:46:02;;;;;;;11.27;8.68;;;8.90;99.90;;;;;;5056121;28;20033;-63
2023/04/20 00:48:28;;;;;;;10.55;8.63;;;8.90;99.90;;;;;;5055776;28;20025;-63
2023/04/20 00:50:54;;;;;;;13.35;9.20;;;8.80;99.90;;;;;;5054393;28;20033;-63
2023/04/20 00:53:20;;;;;;;12.25;8.60;;;8.80;99.90;;;;;;5055358;28;20029;-63
2023/04/20 00:55:46;;;;;;;11.32;8.65;;;8.80;99.90;;;;;;5055269;28;20032;-63
2023/04/20 00:58:12;;;;;;;11.00;8.35;;;8.80;99.90;;;;;;5055269;28;20565;-63
2023/04/20 01:00:39;;;;;;;12.68;8.40;;;8.80;99.90;;;;;;5055230;28;20108;-63
2023/04/20 01:03:06;;;;;;;12.48;8.43;;;8.70;99.90;;;;;;5055558;28;20029;-63
2023/04/20 01:05:31;;;;;;;11.43;8.73;;;8.70;99.90;;;;;;5055285;28;20036;-62
2023/04/20 01:07:57;;;;;;;12.93;8.40;;;8.70;99.90;;;;;;5054763;28;20033;-62
2023/04/20 01:10:23;;;;;;;13.20;8.52;;;8.70;99.90;;;;;;5055249;28;20152;-62
2023/04/20 01:12:49;;;;;;;11.95;8.23;;;8.60;99.90;;;;;;5054869;28;20499;-62
2023/04/20 01:15:14;;;;;;;9.70;7.80;;;8.60;99.90;;;;;;5055107;28;20025;-62
2023/04/20 01:17:40;;;;;;;11.07;8.10;;;8.60;99.90;;;;;;5054886;28;20039;-62
2023/04/20 01:20:08;;;;;;;10.95;8.45;;;8.60;99.90;;;;;;5055415;28;20033;-63
2023/04/20 01:22:44;;;;;;;12.05;9.50;;;8.60;99.90;;;;;;5055209;28;20417;-62
2023/04/20 01:25:10;;;;;;;14.15;9.27;;;8.60;99.90;;;;;;5055243;28;20117;-63
2023/04/20 01:27:35;;;;;;;11.57;8.80;;;8.60;99.90;;;;;;5055080;28;20438;-63
2023/04/20 01:30:01;;;;;;;12.98;9.90;;;8.60;99.90;;;;;;5054249;28;20064;-63
2023/04/20 01:32:26;;;;;;;12.20;8.77;;;8.60;99.90;;;;;;5054851;28;20425;-63
2023/04/20 01:34:52;;;;;;;13.23;9.02;;;8.60;99.90;;;;;;5053182;28;20108;-63
2023/04/20 01:37:18;;;;;;;11.82;8.90;;;8.60;99.90;;;;;;5055104;28;20025;-63
2023/04/20 01:39:44;;;;;;;14.07;9.05;;;8.50;99.90;;;;;;5054482;28;20025;-63
2023/04/20 01:42:10;;;;;;;13.25;8.48;;;8.50;99.90;;;;;;5054435;28;20060;-63
2023/04/20 01:44:35;;;;;;;12.00;8.85;;;8.50;99.90;;;;;;5054762;28;20079;-63
2023/04/20 01:47:01;;;;;;;13.00;8.90;;;8.50;99.90;;;;;;5053996;28;20025;-62
2023/04/20 01:49:27;;;;;;;13.85;8.32;;;8.50;99.90;;;;;;5054373;28;20389;-62
2023/04/20 01:51:53;;;;;;;11.20;8.90;;;8.50;99.90;;;;;;5054169;28;20104;-62
2023/04/20 01:54:18;;;;;;;10.40;7.65;;;8.40;99.90;;;;;;5054641;28;20457;-62
2023/04/20 01:56:44;;;;;;;11.82;8.75;;;8.40;99.90;;;;;;5054054;28;20021;-62
2023/04/20 01:59:09;;;;;;;12.48;8.80;;;8.50;99.90;;;;;;5054361;28;20036;-62
2023/04/20 02:01:35;;;;;;;11.95;8.88;;;8.50;99.90;;;;;;5054362;28;20515;-62
2023/04/20 02:04:01;;;;;;;11.38;8.18;;;8.40;99.90;;;;;;5052333;28;20024;-62
2023/04/20 02:06:26;;;;;;;12.00;8.65;;;8.40;99.90;;;;;;5054352;28;20025;-62
2023/04/20 02:08:52;;;;;;;11.85;9.65;;;8.50;99.90;;;;;;5053867;28;20106;-62
2023/04/20 02:11:18;;;;;;;11.45;8.93;;;8.40;99.90;;;;;;5054220;28;20453;-63
2023/04/20 02:13:43;;;;;;;11.20;9.25;;;8.40;99.90;;;;;;5053889;28;20029;-63
2023/04/20 02:16:09;;;;;;;13.48;10.13;;;8.40;99.90;;;;;;5054221;28;20413;-62
2023/04/20 02:18:36;;;;;;;13.27;10.38;;;8.40;99.90;;;;;;5054190;28;20082;-62
2023/04/20 02:21:02;;;;;;;13.82;9.70;;;8.40;99.90;;;;;;5053709;28;20239;-63
2023/04/20 02:23:27;;;;;;;17.30;10.77;;;8.30;99.90;;;;;;5054014;28;20021;-63
2023/04/20 02:25:53;;;;;;;12.63;10.48;;;8.30;99.90;;;;;;5053645;28;20029;-63
2023/04/20 02:28:19;;;;;;;12.43;10.27;;;8.30;99.90;;;;;;5054026;28;20051;-63
2023/04/20 02:30:45;;;;;;;15.23;11.48;;;8.30;99.90;;;;;;5053542;28;20036;-63
2023/04/20 02:33:10;;;;;;;14.68;11.80;;;8.30;99.90;;;;;;5053919;28;20025;-62
2023/04/20 02:35:36;;;;;;;13.90;11.20;;;8.30;99.90;;;;;;5053730;28;20021;-62
2023/04/20 02:38:02;;;;;;;13.32;10.68;;;8.30;99.90;;;;;;5052726;28;20029;-62
2023/04/20 02:40:27;;;;;;;15.68;11.45;;;8.20;99.90;;;;;;5053712;28;20079;-63
2023/04/20 02:42:53;;;;;;;14.20;11.57;;;8.30;99.90;;;;;;5053061;28;20497;-64
2023/04/20 02:45:19;;;;;;;16.30;11.40;;;8.20;99.90;;;;;;5051677;28;20092;-61
2023/04/20 02:47:45;;;;;;;15.77;11.02;;;8.20;99.90;;;;;;5053231;28;20029;-64
2023/04/20 02:50:11;;;;;;;18.25;12.00;;;8.20;99.90;;;;;;5053691;28;20032;-63
2023/04/20 02:52:37;;;;;;;16.33;12.30;;;8.20;99.90;;;;;;5053385;28;20021;-62
2023/04/20 02:55:03;;;;;;;16.70;12.18;;;8.20;99.90;;;;;;5053070;28;20381;-62
2023/04/20 02:57:28;;;;;;;15.85;12.00;;;8.10;99.90;;;;;;5053432;28;20488;-63
2023/04/20 02:59:54;;;;;;;15.20;11.80;;;8.10;99.90;;;;;;5052972;28;20033;-63
2023/04/20 03:02:20;;;;;;;14.90;11.15;;;8.10;99.90;;;;;;5052915;28;20477;-63
2023/04/20 03:04:45;;;;;;;16.15;12.68;;;8.10;99.90;;;;;;5052940;28;20100;-64
2023/04/20 03:07:11;;;;;;;15.95;12.77;;;8.10;99.90;;;;;;5052898;28;20028;-62
2023/04/20 03:09:37;;;;;;;16.25;12.40;;;8.10;99.90;;;;;;5053158;28;20037;-63
2023/04/20 03:12:05;;;;;;;16.33;12.98;;;8.10;99.90;;;;;;5052722;28;20028;-62
2023/04/20 03:14:31;;;;;;;16.13;12.85;;;8.10;99.90;;;;;;5052991;28;20060;-62
2023/04/20 03:16:57;;;;;;;17.08;12.55;;;8.10;99.90;;;;;;5052660;28;20056;-62
2023/04/20 03:19:23;;;;;;;16.90;13.50;;;8.00;99.90;;;;;;5051747;28;20021;-63
2023/04/20 03:21:48;;;;;;;17.25;12.93;;;8.00;99.90;;;;;;5052303;28;20359;-62
2023/04/20 03:24:15;;;;;;;19.45;14.13;;;8.00;99.90;;;;;;5052952;28;20083;-63
2023/04/20 03:26:41;;;;;;;17.13;12.93;;;7.90;99.90;;;;;;5052942;28;20033;-63
2023/04/20 03:29:07;;;;;;;16.70;12.93;;;7.90;99.90;;;;;;5052778;28;20102;-64
2023/04/20 03:31:32;;;;;;;17.52;13.75;;;7.90;99.90;;;;;;5052629;28;20424;-64
2023/04/20 03:33:58;;;;;;;17.42;13.88;;;7.90;99.90;;;;;;5052167;28;20032;-63
2023/04/20 03:36:24;;;;;;;18.90;14.00;;;7.90;99.90;;;;;;5052534;28;20029;-63
2023/04/20 03:38:49;;;;;;;21.77;13.18;;;7.90;99.90;;;;;;5052452;28;20075;-64
2023/04/20 03:41:15;;;;;;;18.92;14.27;;;7.80;99.90;;;;;;5052966;28;20040;-63
2023/04/20 03:43:41;;;;;;;18.73;14.07;;;7.80;99.90;;;;;;5052691;28;20075;-63
2023/04/20 03:46:07;;;;;;;17.70;14.38;;;7.80;99.90;;;;;;5052667;28;20083;-62
2023/04/20 03:48:33;;;;;;;17.88;14.25;;;7.80;99.90;;;;;;5052617;28;20055;-64
2023/04/20 03:50:58;;;;;;;19.42;15.30;;;7.80;99.90;;;;;;5052285;28;20116;-64
2023/04/20 03:53:25;;;;;;;20.30;15.07;;;7.80;99.90;;;;;;5052778;28;20159;-63
2023/04/20 03:55:50;;;;;;;22.13;15.95;;;7.70;99.90;;;;;;5052292;28;20021;-64
2023/04/20 03:58:16;;;;;;;20.27;14.65;;;7.70;99.90;;;;;;5052594;28;20032;-63
2023/04/20 04:00:42;;;;;;;20.83;15.00;;;7.70;99.90;;;;;;5052390;28;20099;-63
2023/04/20 04:03:08;;;;;;;19.00;15.18;;;7.70;99.90;;;;;;5051056;28;20029;-64
2023/04/20 04:05:34;;;;;;;20.08;15.75;;;7.70;99.90;;;;;;5052585;28;20377;-63
2023/04/20 04:07:59;;;;;;;21.77;15.32;;;7.70;99.90;;;;;;5052489;28;20052;-64
2023/04/20 04:10:26;;;;;;;17.92;14.70;;;7.70;99.90;;;;;;5052454;28;20116;-63
2023/04/20 04:12:51;;;;;;;20.10;14.95;;;7.70;99.90;;;;;;5053281;28;20029;-64
2023/04/20 04:15:20;;;;;;;18.23;15.18;;;7.70;99.90;;;;;;5056554;28;20032;-64
2023/04/20 04:17:47;;;;;;;19.65;15.40;;;7.70;99.90;;;;;;5056171;28;20474;-63
2023/04/20 04:20:13;;;;;;;20.52;15.88;;;7.70;99.90;;;;;;5055978;28;20040;-64
2023/04/20 04:22:40;;;;;;;22.50;15.65;;;7.70;99.90;;;;;;5056285;28;20025;-64
2023/04/20 04:25:06;;;;;;;20.33;15.68;;;7.70;99.90;;;;;;5055748;28;20029;-63
2023/04/20 04:27:36;;;;;;;22.20;15.75;;;7.70;99.90;;;;;;5056283;28;20458;-63
2023/04/20 04:30:03;;;;;;;21.35;16.65;;;7.70;99.90;;;;;;5055711;28;20073;-63
2023/04/20 04:32:29;;;;;;;22.10;16.42;;;7.80;99.90;;;;;;5056062;28;20068;-63
2023/04/20 04:34:54;;;;;;;20.27;16.70;;;7.80;99.90;;;;;;5055161;28;20048;-64
2023/04/20 04:37:20;;;;;;;22.23;17.42;;;7.80;99.90;;;;;;5055927;28;20362;-63
2023/04/20 04:39:46;;;;;;;23.42;17.60;;;7.80;99.90;;;;;;5054476;28;20025;-63
2023/04/20 04:42:12;;;;;;;25.45;18.33;;;7.80;99.90;;;;;;5054323;28;20357;-64
2023/04/20 04:44:38;;;;;;;21.83;17.00;;;7.80;99.90;;;;;;5055915;28;20049;-63
2023/04/20 04:47:04;;;;;;;25.50;17.98;;;7.90;99.90;;;;;;5055440;28;20107;-63
2023/04/20 04:49:31;;;;;;;25.38;18.33;;;7.90;99.90;;;;;;5056052;28;20028;-64
2023/04/20 04:51:56;;;;;;;22.60;16.92;;;7.90;99.90;;;;;;5055174;28;20048;-64
2023/04/20 04:54:22;;;;;;;24.33;18.40;;;7.90;99.90;;;;;;5055747;28;20106;-65
2023/04/20 04:56:48;;;;;;;23.58;18.80;;;7.90;99.90;;;;;;5055676;28;20442;-64
2023/04/20 04:59:13;;;;;;;26.73;18.92;;;7.90;99.90;;;;;;5055583;28;20025;-63
2023/04/20 05:01:39;;;;;;;26.35;19.15;;;7.90;99.90;;;;;;5055742;28;20036;-64
2023/04/20 05:04:05;;;;;;;26.15;18.85;;;8.00;99.90;;;;;;5055069;28;20021;-63
2023/04/20 05:06:31;;;;;;;27.58;18.70;;;8.00;99.90;;;;;;5055804;28;20537;-62
2023/04/20 05:08:57;;;;;;;23.77;19.02;;;8.00;99.90;;;;;;5055119;28;20079;-64
2023/04/20 05:11:22;;;;;;;28.05;19.55;;;8.00;99.90;;;;;;5055613;28;20037;-64
2023/04/20 05:13:48;;;;;;;25.58;18.95;;;8.00;99.90;;;;;;5055178;28;20064;-63
2023/04/20 05:16:14;;;;;;;26.50;20.35;;;8.00;99.90;;;;;;5054908;28;20454;-63
2023/04/20 05:18:40;;;;;;;27.60;20.08;;;8.00;99.90;;;;;;5055241;28;20380;-64
2023/04/20 05:21:06;;;;;;;28.52;20.65;;;8.00;99.90;;;;;;5054677;28;20036;-64
2023/04/20 05:23:31;;;;;;;27.60;20.40;;;8.00;99.90;;;;;;5055657;28;20445;-64
2023/04/20 05:25:57;;;;;;;28.85;20.48;;;8.10;99.90;;;;;;5054224;28;20104;-64
2023/04/20 05:28:23;;;;;;;27.35;19.90;;;8.10;99.90;;;;;;5054811;28;20067;-63
2023/04/20 05:30:48;;;;;;;25.95;20.25;;;8.10;99.90;;;;;;5055152;28;20033;-63
2023/04/20 05:33:15;;;;;;;27.15;19.95;;;8.20;99.90;;;;;;5053344;28;20107;-63
2023/04/20 05:35:40;;;;;;;27.15;19.77;;;8.20;99.90;;;;;;5054929;28;20025;-63
2023/04/20 05:38:06;;;;;;;27.95;20.00;;;8.20;99.90;;;;;;5054624;28;20032;-64
2023/04/20 05:40:35;;;;;;;29.15;20.17;;;8.30;99.90;;;;;;5054938;28;20052;-63
2023/04/20 05:43:01;;;;;;;27.58;20.27;;;8.30;99.90;;;;;;5053198;28;20029;-64
2023/04/20 05:45:26;;;;;;;27.45;20.35;;;8.40;99.90;;;;;;5054801;28;20118;-63
2023/04/20 05:47:53;;;;;;;28.58;20.08;;;8.40;99.90;;;;;;5054318;28;20469;-63
2023/04/20 05:50:19;;;;;;;26.80;20.52;;;8.40;99.90;;;;;;5054119;28;20041;-63
2023/04/20 05:52:45;;;;;;;26.60;20.05;;;8.40;99.90;;;;;;5054610;28;20427;-63
2023/04/20 05:55:10;;;;;;;28.92;19.58;;;8.50;99.90;;;;;;5054122;28;20033;-63
2023/04/20 05:57:41;;;;;;;29.58;20.33;;;8.40;99.90;;;;;;5054607;28;20056;-63
2023/04/20 06:00:12;;;;;;;24.27;19.20;;;8.50;99.90;;;;;;5054167;28;20025;-63
2023/04/20 06:02:38;;;;;;;29.98;20.58;;;8.50;99.90;;;;;;5054286;28;20430;-63
2023/04/20 06:05:04;;;;;;;26.85;20.15;;;8.60;99.90;;;;;;5054027;28;20029;-63
2023/04/20 06:07:30;;;;;;;30.60;21.17;;;8.60;99.90;;;;;;5054442;28;20029;-63
2023/04/20 06:09:56;;;;;;;26.35;19.83;;;8.60;99.90;;;;;;5054005;28;20116;-62
2023/04/20 06:12:22;;;;;;;25.30;19.17;;;8.60;99.90;;;;;;5053784;28;20050;-62
2023/04/20 06:14:48;;;;;;;26.77;19.35;;;8.60;99.90;;;;;;5054125;28;20021;-62
2023/04/20 06:17:13;;;;;;;27.50;20.38;;;8.60;99.90;;;;;;5053538;28;20025;-62
2023/04/20 06:19:39;;;;;;;25.42;19.83;;;8.60;99.90;;;;;;5054048;28;20461;-63
2023/04/20 06:22:08;;;;;;;26.90;19.90;;;8.60;99.90;;;;;;5053560;28;20036;-62
2023/04/20 06:24:34;;;;;;;26.70;20.65;;;8.70;99.90;;;;;;5054053;28;20029;-63
2023/04/20 06:27:00;;;;;;;28.60;20.50;;;8.70;99.90;;;;;;5053583;28;20029;-67
2023/04/20 06:29:27;;;;;;;26.58;19.17;;;8.70;99.90;;;;;;5053425;28;20047;-64
2023/04/20 06:31:53;;;;;;;24.90;19.17;;;8.80;99.90;;;;;;5053916;28;20075;-64
2023/04/20 06:34:18;;;;;;;26.40;19.85;;;8.80;99.90;;;;;;5053263;28;20033;-62
2023/04/20 06:36:44;;;;;;;27.35;19.83;;;8.80;99.90;;;;;;5052821;28;20354;-63
2023/04/20 06:39:12;;;;;;;28.23;20.02;;;8.90;99.90;;;;;;5053512;28;20195;-62
2023/04/20 06:41:38;;;;;;;23.23;18.83;;;8.90;99.90;;;;;;5053344;28;20017;-62
2023/04/20 06:44:04;;;;;;;23.50;18.20;;;8.90;99.90;;;;;;5052958;28;20402;-64
2023/04/20 06:46:30;;;;;;;28.40;19.33;;;8.90;99.90;;;;;;5053735;28;20035;-64
2023/04/20 06:48:58;;;;;;;27.48;18.70;;;9.00;99.90;;;;;;5053502;28;20029;-63
2023/04/20 06:51:24;;;;;;;26.30;19.42;;;9.00;99.90;;;;;;5053135;28;20029;-64
2023/04/20 06:53:49;;;;;;;29.48;19.73;;;9.00;99.90;;;;;;5053613;28;20029;-63
2023/04/20 06:56:15;;;;;;;26.60;18.92;;;9.10;99.90;;;;;;5053159;28;20074;-64
2023/04/20 06:58:41;;;;;;;27.27;19.80;;;9.10;99.90;;;;;;5053513;28;20021;-63
2023/04/20 07:01:06;;;;;;;28.70;20.15;;;9.10;99.90;;;;;;5053111;28;20108;-64
2023/04/20 07:03:32;;;;;;;29.48;19.98;;;9.20;99.90;;;;;;5053281;28;20040;-63
2023/04/20 07:05:58;;;;;;;26.33;19.60;;;9.20;99.90;;;;;;5053106;28;20468;-63
2023/04/20 07:08:23;;;;;;;26.70;20.20;;;9.20;99.90;;;;;;5052825;28;20098;-64
2023/04/20 07:10:49;;;;;;;22.48;18.05;;;9.30;99.90;;;;;;5053102;28;20136;-63
2023/04/20 07:13:15;;;;;;;28.30;20.20;;;9.30;99.90;;;;;;5052665;28;20040;-63
2023/04/20 07:15:42;;;;;;;25.35;18.38;;;9.30;99.90;;;;;;5053294;28;20453;-63
2023/04/20 07:18:08;;;;;;;26.00;19.50;;;9.40;99.90;;;;;;5052950;28;20450;-63
2023/04/20 07:20:33;;;;;;;25.20;19.10;;;9.50;99.90;;;;;;5053087;28;20025;-63
2023/04/20 07:22:59;;;;;;;25.73;17.90;;;9.60;99.90;;;;;;5054074;28;20028;-63
2023/04/20 07:25:25;;;;;;;27.27;18.88;;;9.70;99.90;;;;;;5054658;28;20028;-63
2023/04/20 07:27:50;;;;;;;25.88;18.35;;;9.80;99.90;;;;;;5056384;28;20021;-65
2023/04/20 07:30:16;;;;;;;25.13;18.85;;;9.90;99.90;;;;;;5056569;28;20037;-63
2023/04/20 07:32:43;;;;;;;24.05;17.63;;;10.00;99.90;;;;;;5053489;28;20393;-63
2023/04/20 07:35:09;;;;;;;25.33;18.27;;;10.00;99.90;;;;;;5052368;28;20032;-64
2023/04/20 07:37:35;;;;;;;25.80;18.95;;;10.10;99.90;;;;;;5052723;28;20094;-64
2023/04/20 07:40:02;;;;;;;24.13;18.40;;;10.10;99.90;;;;;;5052730;28;20032;-63
2023/04/20 07:42:32;;;;;;;29.23;18.83;;;10.20;99.90;;;;;;5052736;28;20021;-63
2023/04/20 07:44:58;;;;;;;25.55;18.42;;;10.30;99.90;;;;;;5052208;28;20448;-63
2023/04/20 07:47:23;;;;;;;27.00;19.73;;;10.30;99.90;;;;;;5050777;28;20021;-63
2023/04/20 07:49:49;;;;;;;27.70;18.90;;;10.30;99.90;;;;;;5052697;28;20029;-63
2023/04/20 07:52:15;;;;;;;27.50;18.83;;;10.40;99.90;;;;;;5052245;28;20025;-63
2023/04/20 07:54:41;;;;;;;27.75;19.30;;;10.40;99.90;;;;;;5051340;28;20021;-63
2023/04/20 07:57:08;;;;;;;24.65;18.67;;;10.50;99.90;;;;;;5052469;28;20024;-68
2023/04/20 07:59:34;;;;;;;29.50;18.92;;;10.50;99.90;;;;;;5052501;28;20032;-64
2023/04/20 08:02:01;;;;;;;27.25;18.70;;;10.60;99.90;;;;;;5052009;28;20420;-63
2023/04/20 08:04:26;;;;;;;26.58;19.02;;;10.70;99.90;;;;;;5051834;28;20269;-62
2023/04/20 08:06:52;;;;;;;28.73;18.80;;;10.80;99.90;;;;;;5052601;28;20049;-62
2023/04/20 08:09:19;;;;;;;26.75;18.48;;;10.90;99.90;;;;;;5052378;28;20025;-62
2023/04/20 08:11:45;;;;;;;26.27;19.08;;;10.90;99.90;;;;;;5050850;28;20474;-63
2023/04/20 08:14:11;;;;;;;28.63;18.88;;;10.90;99.90;;;;;;5052086;28;20036;-63
2023/04/20 08:16:37;;;;;;;25.95;19.08;;;11.00;99.90;;;;;;5052467;28;20051;-62
2023/04/20 08:19:08;;;;;;;25.48;18.27;;;11.10;99.90;;;;;;5052736;28;20450;-63
2023/04/20 08:21:35;;;;;;;26.63;19.67;;;11.20;99.40;;;;;;5052652;28;20082;-63
2023/04/20 08:24:01;;;;;;;25.17;17.67;;;11.60;99.90;;;;;;5052165;28;20389;-63
2023/04/20 08:26:26;;;;;;;24.00;18.20;;;11.90;99.70;;;;;;5052207;28;20112;-63
2023/04/20 08:28:52;;;;;;;26.98;17.33;;;12.50;98.00;;;;;;5052296;28;20029;-62
2023/04/20 08:31:18;;;;;;;23.73;17.25;;;12.60;96.30;;;;;;5051965;28;20374;-63
2023/04/20 08:33:43;;;;;;;22.50;16.90;;;13.00;94.80;;;;;;5052270;28;20378;-62
2023/04/20 08:36:09;;;;;;;23.00;16.98;;;13.10;94.10;;;;;;5051559;28;20029;-68
2023/04/20 08:38:35;;;;;;;26.15;18.08;;;13.10;93.20;;;;;;5052190;28;20025;-63
2023/04/20 08:41:01;;;;;;;21.35;16.65;;;13.20;92.80;;;;;;5051923;28;20033;-64
2023/04/20 08:43:26;;;;;;;22.17;16.45;;;13.40;93.10;;;;;;5051748;28;20079;-63
2023/04/20 08:45:57;;;;;;;24.63;16.70;;;13.70;92.90;;;;;;5052059;28;20045;-63
2023/04/20 08:48:25;;;;;;;21.88;16.88;;;13.70;92.60;;;;;;5051651;28;20033;-63
2023/04/20 08:50:52;;;;;;;22.55;17.45;;;13.90;92.80;;;;;;5051591;28;20478;-63
2023/04/20 08:53:17;;;;;;;21.75;16.63;;;14.10;92.50;;;;;;5051656;28;20107;-63
2023/04/20 08:55:43;;;;;;;20.15;15.95;;;14.30;90.80;;;;;;5052065;28;20069;-63
2023/04/20 08:58:08;;;;;;;21.65;16.65;;;14.40;90.80;;;;;;5051654;28;20031;-62
2023/04/20 09:00:34;;;;;;;22.13;17.17;;;14.70;90.10;;;;;;5053663;28;20025;-62
2023/04/20 09:03:00;;;;;;;23.27;16.77;;;14.70;87.90;;;;;;5055636;28;20051;-63
2023/04/20 09:05:30;;;;;;;21.50;16.50;;;14.80;86.60;;;;;;5055195;28;20112;-62
2023/04/20 09:08:00;;;;;;;21.15;16.63;;;14.90;87.80;;;;;;5055639;28;20052;-63
2023/04/20 09:10:37;;;;;;;21.50;16.40;;;15.00;86.50;;;;;;5055005;28;20037;-63
2023/04/20 09:13:03;;;;;;;19.58;15.68;;;15.10;85.40;;;;;;5055509;28;20025;-63
2023/04/20 09:15:30;;;;;;;19.80;16.17;;;15.20;83.60;;;;;;5055302;28;20374;-63
2023/04/20 09:17:56;;;;;;;24.42;16.23;;;15.20;83.70;;;;;;5055384;28;20044;-63
2023/04/20 09:20:31;;;;;;;21.27;15.88;;;15.20;83.60;;;;;;5054948;28;20029;-63
2023/04/20 09:22:57;;;;;;;23.77;17.15;;;15.30;82.70;;;;;;5055309;28;20476;-63
2023/04/20 09:25:25;;;;;;;19.00;14.55;;;15.30;82.00;;;;;;5054940;28;20025;-63
2023/04/20 09:27:58;;;;;;;20.50;16.20;;;15.40;82.80;;;;;;5055239;28;20017;-63
2023/04/20 09:30:24;;;;;;;20.45;15.73;;;15.50;81.80;;;;;;5054305;28;20129;-63
2023/04/20 09:33:11;;;;;;;24.35;18.48;;;15.50;82.70;;;;;;5055199;28;20112;-63
2023/04/20 09:35:40;;;;;;;22.33;16.85;;;15.60;83.10;;;;;;5054660;28;20033;-63
2023/04/20 09:38:13;;;;;;;23.02;17.52;;;15.70;85.00;;;;;;5055228;28;20357;-63
2023/04/20 09:40:39;;;;;;;25.25;17.98;;;15.80;83.40;;;;;;5055123;28;20363;-62
2023/04/20 09:43:18;;;;;;;20.20;15.52;;;15.90;81.60;;;;;;5054634;28;20025;-63
2023/04/20 09:45:44;;;;;;;21.30;15.63;;;16.00;80.30;;;;;;5054368;28;20390;-63
2023/04/20 09:48:11;;;;;;;21.42;15.25;;;16.00;80.30;;;;;;5054766;28;20036;-63
2023/04/20 09:50:37;;;;;;;20.75;16.27;;;16.20;81.00;;;;;;5054379;28;20036;-63
2023/04/20 09:53:06;;;;;;;21.95;17.13;;;16.20;79.40;;;;;;5054691;28;20033;-62
2023/04/20 09:55:32;;;;;;;19.38;15.60;;;16.30;79.70;;;;;;5054246;28;20078;-62
2023/04/20 09:58:01;;;;;;;20.08;15.18;;;16.40;81.10;;;;;;5054686;28;20025;-63
2023/04/20 10:00:27;;;;;;;19.50;15.18;;;16.40;78.10;;;;;;5054155;28;20055;-61
2023/04/20 10:02:53;;;;;;;20.17;15.45;;;16.40;79.40;;;;;;5054238;28;20032;-63
2023/04/20 10:05:19;;;;;;;19.45;14.30;;;16.40;79.00;;;;;;5054064;28;20099;-64
2023/04/20 10:07:45;;;;;;;22.70;17.15;;;16.50;78.70;;;;;;5054368;28;20025;-64
2023/04/20 10:10:13;;;;;;;21.38;15.55;;;16.50;76.80;;;;;;5053737;28;20036;-64
2023/04/20 10:12:55;;;;;;;18.35;14.27;;;16.40;77.40;;;;;;5053707;28;20420;-63
2023/04/20 10:15:23;;;;;;;21.40;15.88;;;16.50;78.10;;;;;;5052526;28;20392;-63
2023/04/20 10:17:49;;;;;;;20.65;15.40;;;16.50;77.30;;;;;;5054033;28;20033;-63
2023/04/20 10:20:32;;;;;;;18.42;13.82;;;16.30;76.60;;;;;;5054094;28;20029;-63
2023/04/20 10:23:09;;;;;;;18.90;14.10;;;16.30;79.30;;;;;;5053923;28;20049;-63
2023/04/20 10:25:35;;;;;;;19.30;13.95;;;16.40;79.80;;;;;;5053756;28;20021;-63
2023/04/20 10:28:07;;;;;;;18.98;13.93;;;16.50;80.30;;;;;;5053834;28;20037;-62
2023/04/20 10:30:33;;;;;;;21.08;14.90;;;16.60;78.80;;;;;;5053173;28;20036;-63
2023/04/20 10:33:06;;;;;;;18.95;14.73;;;16.50;77.10;;;;;;5053545;28;20478;-63
2023/04/20 10:35:53;;;;;;;17.95;13.80;;;16.50;77.40;;;;;;5053568;28;20044;-63
2023/04/20 10:38:33;;;;;;;21.13;15.73;;;16.50;77.80;;;;;;5053460;28;20458;-62
2023/04/20 10:41:06;;;;;;;21.20;15.95;;;16.40;77.30;;;;;;5053950;28;20029;-63
2023/04/20 10:43:34;;;;;;;22.67;15.75;;;16.40;77.70;;;;;;5052598;28;20357;-65
2023/04/20 10:45:59;;;;;;;24.48;15.80;;;16.40;79.30;;;;;;5053479;28;20094;-64
2023/04/20 10:48:25;;;;;;;16.67;13.48;;;16.60;80.60;;;;;;5053122;28;20025;-63
2023/04/20 10:50:50;;;;;;;17.92;14.50;;;16.60;81.70;;;;;;5053439;28;20111;-63
2023/04/20 10:53:21;;;;;;;20.90;15.68;;;16.80;81.00;;;;;;5053379;28;20108;-63
2023/04/20 10:55:56;;;;;;;19.60;14.95;;;16.80;80.10;;;;;;5053638;28;20036;-63
2023/04/20 10:58:23;;;;;;;18.45;14.38;;;16.80;78.10;;;;;;5053130;28;20036;-63
2023/04/20 11:01:03;;;;;;;17.83;13.45;;;16.70;77.70;;;;;;5052897;28;20040;-63
2023/04/20 11:03:30;;;;;;;17.48;14.63;;;16.80;79.80;;;;;;5052898;28;20343;-63
2023/04/20 11:06:00;;;;;;;19.02;13.80;;;16.80;77.50;;;;;;5053287;28;20036;-63
2023/04/20 11:08:39;;;;;;;18.50;13.85;;;16.80;77.00;;;;;;5052755;28;20044;-63
2023/04/20 11:11:05;;;;;;;18.65;14.60;;;16.80;76.80;;;;;;5052884;28;20064;-63
2023/04/20 11:13:32;;;;;;;17.23;13.05;;;16.90;77.60;;;;;;5052593;28;20056;-63
2023/04/20 11:15:58;;;;;;;18.42;12.40;;;16.90;78.40;;;;;;5052908;28;20427;-63
2023/04/20 11:18:24;;;;;;;17.88;13.35;;;17.00;77.10;;;;;;5052354;28;20029;-63
2023/04/20 11:20:54;;;;;;;17.15;11.65;;;17.10;76.80;;;;;;5053140;28;20057;-63
2023/04/20 11:23:21;;;;;;;22.03;13.47;;;17.20;77.10;;;;;;5052120;28;20033;-64
2023/04/20 11:25:56;;;;;;;15.50;12.95;;;17.30;73.40;;;;;;5052937;28;20057;-63
2023/04/20 11:28:22;;;;;;;19.13;12.85;;;17.20;73.90;;;;;;5052884;28;20110;-67
2023/04/20 11:30:49;;;;;;;16.23;12.63;;;17.30;74.00;;;;;;5052699;28;20037;-63
2023/04/20 11:33:27;;;;;;;18.83;12.52;;;17.40;74.60;;;;;;5052599;28;20056;-63
2023/04/20 11:35:55;;;;;;;18.02;12.88;;;17.50;75.20;;;;;;5052494;28;20032;-63
2023/04/20 11:38:41;;;;;;;16.35;13.30;;;17.50;74.50;;;;;;5052413;28;20354;-63
2023/04/20 11:41:07;;;;;;;16.27;12.45;;;17.60;74.40;;;;;;5052200;28;20040;-63
2023/04/20 11:43:34;;;;;;;14.02;11.60;;;17.70;73.70;;;;;;5052067;28;20027;-63
2023/04/20 11:46:01;;;;;;;13.73;12.00;;;17.70;73.10;;;;;;5052647;28;20024;-63
2023/04/20 11:48:30;;;;;;;16.52;11.90;;;17.70;73.50;;;;;;5052076;28;20047;-63
2023/04/20 11:50:56;;;;;;;15.38;12.10;;;17.70;72.90;;;;;;5052554;28;20033;-62
2023/04/20 11:53:22;;;;;;;15.50;11.93;;;17.60;73.60;;;;;;5052654;28;20029;-63
2023/04/20 11:55:48;;;;;;;17.05;11.40;;;17.60;73.50;;;;;;5052281;28;20071;-62
2023/04/20 11:58:13;;;;;;;15.88;12.55;;;17.60;74.80;;;;;;5052494;28;20108;-62
2023/04/20 12:00:39;;;;;;;15.18;10.85;;;17.60;72.80;;;;;;5050985;28;20056;-63
2023/04/20 12:03:05;;;;;;;14.27;11.57;;;17.50;72.00;;;;;;5052574;28;20485;-63
2023/04/20 12:05:31;;;;;;;14.63;12.23;;;17.50;72.90;;;;;;5052174;28;20034;-62
2023/04/20 12:07:57;;;;;;;13.48;11.55;;;17.50;72.50;;;;;;5052332;28;20029;-63
2023/04/20 12:10:23;;;;;;;15.30;11.07;;;17.40;71.60;;;;;;5052613;28;20033;-63
2023/04/20 12:12:48;;;;;;;18.27;12.25;;;17.40;72.70;;;;;;5052006;28;20471;-63
2023/04/20 12:15:14;;;;;;;16.88;11.48;;;17.50;73.30;;;;;;5050971;28;20048;-62
2023/04/20 12:17:40;;;;;;;13.75;11.25;;;17.40;73.20;;;;;;5052273;28;20037;-63
2023/04/20 12:20:07;;;;;;;18.20;11.82;;;17.50;73.30;;;;;;5052364;28;20458;-63
2023/04/20 12:22:33;;;;;;;15.18;12.52;;;17.30;73.20;;;;;;5051994;28;20029;-63
2023/04/20 12:24:59;;;;;;;15.88;10.80;;;17.30;73.90;;;;;;5051795;28;20040;-63
2023/04/20 12:27:25;;;;;;;17.00;11.43;;;17.30;75.00;;;;;;5052278;28;20109;-63
2023/04/20 12:29:51;;;;;;;13.98;10.90;;;17.30;74.30;;;;;;5052010;28;20522;-63
2023/04/20 12:32:16;;;;;;;16.98;11.93;;;17.30;74.00;;;;;;5052264;28;20027;-63
2023/04/20 12:34:42;;;;;;;13.27;10.77;;;17.30;73.90;;;;;;5053025;28;20383;-63